Time;durP1;ratioP1;P1;durP2;ratioP2;P2;SDS_P1;SDS_P2;PMS_P1;PMS_P2;Temp;Humidity;BMP_temperature;BMP_pressure;BME280_temperature;BME280_humidity;BME280_pressure;Samples;Min_cycle;Max_cycle;Signal;HPM_P1;HPM_P2
2022/09/13 00:00:15;;;;;;;;;41.60;36.40;;;;;20.60;46.45;98631.25;6161294;28;97739;-56
2022/09/13 00:03:20;;;;;;;;;39.00;34.80;;;;;20.56;46.26;98628.31;6163067;28;97038;-59
2022/09/13 00:06:25;;;;;;;;;39.80;35.00;;;;;20.54;46.38;98633.25;6167818;28;96512;-57
2022/09/13 00:09:28;;;;;;;;;42.60;37.40;;;;;20.50;46.07;98626.72;6161910;28;97528;-59
2022/09/13 00:12:31;;;;;;;;;36.40;33.20;;;;;20.46;46.50;98622.94;6163046;28;97022;-56
2022/09/13 00:15:35;;;;;;;;;44.67;38.00;;;;;20.40;46.60;98623.28;6162814;28;96925;-56
2022/09/13 00:18:39;;;;;;;;;43.60;38.00;;;;;20.34;46.67;98614.31;6161758;28;97234;-57
2022/09/13 00:21:43;;;;;;;;;44.00;37.75;;;;;20.29;46.58;98608.88;6171641;28;97410;-58
2022/09/13 00:24:47;;;;;;;;;48.40;40.40;;;;;20.27;46.81;98622.06;6160906;28;97040;-60
2022/09/13 00:27:50;;;;;;;;;50.20;43.00;;;;;20.24;46.99;98617.13;6162250;28;96663;-58
2022/09/13 00:30:56;;;;;;;;;40.80;35.80;;;;;20.21;46.81;98617.72;6162618;28;96944;-57
2022/09/13 00:34:00;;;;;;;;;43.00;37.00;;;;;20.11;47.05;98607.72;6161930;28;97573;-56
2022/09/13 00:37:05;;;;;;;;;48.00;41.00;;;;;20.11;46.78;98602.25;6161674;28;96868;-58
2022/09/13 00:40:10;;;;;;;;;49.80;42.00;;;;;20.16;47.05;98610.41;6161669;28;97571;-56
2022/09/13 00:43:17;;;;;;;;;47.60;40.60;;;;;20.14;47.35;98609.03;6162552;28;98547;-57
2022/09/13 00:46:27;;;;;;;;;38.20;34.00;;;;;20.11;47.32;98606.91;6158845;28;97447;-57
2022/09/13 00:49:36;;;;;;;;;43.75;37.75;;;;;19.96;47.42;98585.97;6163801;28;97416;-57
2022/09/13 00:52:43;;;;;;;;;41.40;35.80;;;;;20.09;47.27;98598.16;6162234;28;98138;-55
2022/09/13 00:55:53;;;;;;;;;42.60;36.00;;;;;20.09;47.82;98606.34;6153101;28;97508;-58
2022/09/13 00:59:01;;;;;;;;;45.40;38.40;;;;;20.06;47.35;98596.00;6162601;28;96927;-56
2022/09/13 01:02:05;;;;;;;;;44.75;38.50;;;;;20.07;47.54;98605.84;6156138;28;97524;-60
2022/09/13 01:05:09;;;;;;;;;37.00;33.50;;;;;20.07;47.81;98600.38;6160892;28;97515;-58
2022/09/13 01:08:21;;;;;;;;;47.00;40.00;;;;;20.05;47.51;98603.41;6161297;28;96581;-55
2022/09/13 01:11:29;;;;;;;;;45.00;39.00;;;;;20.04;47.58;98590.00;6160469;28;96908;-55
2022/09/13 01:14:33;;;;;;;;;26.75;25.00;;;;;19.98;47.81;98581.06;6152841;28;96663;-57
2022/09/13 01:17:39;;;;;;;;;50.75;43.00;;;;;20.03;47.52;98583.72;6159922;28;98414;-55
2022/09/13 01:21:04;;;;;;;;;36.00;33.00;;;;;20.03;47.25;98591.94;6160949;28;97723;-59
2022/09/13 01:24:47;;;;;;;;;47.00;40.00;;;;;20.01;47.76;98585.94;6162026;28;96612;-57
2022/09/13 01:28:07;;;;;;;;;47.25;39.50;;;;;20.01;47.75;98593.31;6159644;28;97103;-61
2022/09/13 01:31:19;;;;;;;;;40.60;35.40;;;;;20.00;47.73;98594.41;6161164;28;97167;-57
2022/09/13 01:34:35;;;;;;;;;44.40;38.00;;;;;20.00;48.19;98591.69;6160438;28;97284;-58
2022/09/13 01:37:50;;;;;;;;;45.00;38.00;;;;;19.99;48.06;98587.34;6164009;28;98259;-58
2022/09/13 01:41:06;;;;;;;;;38.80;34.20;;;;;20.00;47.79;98605.38;6164903;28;97374;-56
2022/09/13 01:44:24;;;;;;;;;47.60;40.60;;;;;19.98;47.89;98602.13;6171324;28;97580;-56
2022/09/13 01:47:34;;;;;;;;;46.00;39.00;;;;;19.98;47.73;98602.13;6165925;28;97522;-60
2022/09/13 01:50:43;;;;;;;;;31.75;31.00;;;;;19.98;47.80;98607.59;6161230;28;97570;-56
2022/09/13 01:53:58;;;;;;;;;39.00;35.00;;;;;19.96;47.79;98604.31;6166071;28;97516;-58
2022/09/13 01:57:07;;;;;;;;;42.50;36.00;;;;;19.96;47.84;98599.66;6165297;28;96652;-57
2022/09/13 02:00:13;;;;;;;;;55.00;46.00;;;;;19.93;47.58;98594.78;6173599;28;98005;-58
2022/09/13 02:03:24;;;;;;;;;44.50;38.75;;;;;19.90;47.78;98595.34;6161459;28;97526;-59
2022/09/13 02:06:32;;;;;;;;;49.40;41.80;;;;;19.88;47.87;98586.63;6164538;28;97374;-59
2022/09/13 02:09:41;;;;;;;;;43.20;37.00;;;;;19.87;47.52;98587.72;6165451;28;96733;-57
2022/09/13 02:12:48;;;;;;;;;57.80;48.00;;;;;19.77;47.60;98574.97;6165043;28;96990;-57
2022/09/13 02:15:57;;;;;;;;;45.60;39.00;;;;;19.83;47.67;98584.75;6152834;28;97387;-58
2022/09/13 02:19:09;;;;;;;;;53.80;45.40;;;;;19.80;47.85;98573.56;6164334;28;98292;-59
2022/09/13 02:22:20;;;;;;;;;37.25;34.25;;;;;19.78;47.81;98568.41;6165206;28;97389;-57
2022/09/13 02:25:26;;;;;;;;;31.60;29.60;;;;;19.78;47.95;98567.56;6172661;28;97828;-57
2022/09/13 02:28:35;;;;;;;;;51.80;43.80;;;;;19.76;47.76;98567.84;6164711;28;97038;-55
2022/09/13 02:31:43;;;;;;;;;45.00;38.50;;;;;19.76;47.69;98565.13;6167436;28;97576;-57
2022/09/13 02:34:53;;;;;;;;;41.40;36.00;;;;;19.76;47.52;98565.13;6162869;28;96656;-58
2022/09/13 02:38:02;;;;;;;;;46.75;40.00;;;;;19.76;47.69;98567.03;6164816;28;97490;-56
2022/09/13 02:41:11;;;;;;;;;53.75;45.00;;;;;19.75;47.67;98566.22;6164891;28;97580;-59
2022/09/13 02:44:19;;;;;;;;;29.20;29.20;;;;;19.75;47.82;98558.00;6164363;28;96517;-56
2022/09/13 02:47:36;;;;;;;;;48.00;41.00;;;;;19.75;47.72;98562.66;6154766;28;96957;-55
2022/09/13 02:50:49;;;;;;;;;49.00;41.00;;;;;19.74;47.89;98564.59;6163889;28;97457;-55
2022/09/13 02:54:04;;;;;;;;;44.50;38.50;;;;;19.72;48.04;98561.34;6164116;28;97452;-58
2022/09/13 02:57:14;;;;;;;;;49.50;42.25;;;;;19.71;47.98;98562.44;6163512;28;97226;-56
2022/09/13 03:00:18;;;;;;;;;44.20;37.60;;;;;19.71;47.88;98558.88;6163359;28;97558;-55
2022/09/13 03:03:21;;;;;;;;;42.40;36.00;;;;;19.68;47.93;98552.09;6163845;28;97534;-57
2022/09/13 03:06:28;;;;;;;;;43.80;38.20;;;;;19.67;47.66;98549.63;6163661;28;98582;-61
2022/09/13 03:09:32;;;;;;;;;42.00;36.00;;;;;19.67;47.70;98553.19;6163915;28;97416;-57
2022/09/13 03:13:09;;;;;;;;;42.00;37.00;;;;;19.67;47.90;98544.97;6164804;28;97530;-56
2022/09/13 03:16:27;;;;;;;;;45.60;38.60;;;;;19.65;47.87;98541.72;6153349;28;96618;-57
2022/09/13 03:19:46;;;;;;;;;42.50;37.00;;;;;19.67;47.86;98533.22;6152439;28;96644;-56
2022/09/13 03:23:28;;;;;;;;;42.25;37.00;;;;;19.63;47.79;98532.16;6163270;28;97451;-58
2022/09/13 03:26:51;;;;;;;;;49.00;42.00;;;;;19.61;47.68;98526.16;6156291;28;97002;-57
2022/09/13 03:30:02;;;;;;;;;41.40;36.20;;;;;19.62;47.74;98530.53;6161990;28;96943;-56
2022/09/13 03:33:16;;;;;;;;;38.50;34.50;;;;;19.62;47.25;98519.59;6162443;28;98893;-56
2022/09/13 03:36:25;;;;;;;;;41.60;36.80;;;;;19.62;47.43;98514.94;6163664;28;97049;-58
2022/09/13 03:39:42;;;;;;;;;43.80;37.00;;;;;19.61;47.62;98512.50;6161406;28;96964;-56
2022/09/13 03:42:51;;;;;;;;;47.75;41.25;;;;;19.61;47.61;98516.03;6161011;28;96617;-57
2022/09/13 03:45:59;;;;;;;;;44.00;37.75;;;;;19.58;47.30;98513.09;6161536;28;97448;-55
2022/09/13 03:49:06;;;;;;;;;44.60;38.00;;;;;19.61;47.37;98521.50;6160515;28;96900;-57
2022/09/13 03:52:11;;;;;;;;;45.40;39.20;;;;;19.60;47.21;98516.31;6158359;28;97304;-57
2022/09/13 03:55:18;;;;;;;;;44.40;38.40;;;;;19.61;47.13;98505.09;6161527;28;96874;-55
2022/09/13 03:58:23;;;;;;;;;49.50;40.83;;;;;19.42;47.01;98487.78;6161319;28;97564;-55
2022/09/13 04:01:27;;;;;;;;;33.80;31.80;;;;;19.60;46.84;98511.69;6161260;28;97336;-57
2022/09/13 04:04:30;;;;;;;;;46.33;39.83;;;;;19.58;46.75;98511.16;6161490;28;97120;-56
2022/09/13 04:07:33;;;;;;;;;43.00;37.20;;;;;19.60;46.61;98524.53;6156688;28;96631;-57
2022/09/13 04:10:39;;;;;;;;;42.00;36.60;;;;;19.56;46.54;98512.53;6174618;28;96852;-57
2022/09/13 04:13:42;;;;;;;;;42.67;37.17;;;;;19.56;46.52;98510.63;6159749;28;96875;-56
2022/09/13 04:16:46;;;;;;;;;48.20;41.40;;;;;19.57;46.65;98508.72;6160441;28;97530;-55
2022/09/13 04:19:49;;;;;;;;;39.60;35.00;;;;;19.55;46.66;98511.72;6159131;28;96786;-58
2022/09/13 04:22:53;;;;;;;;;47.00;39.00;;;;;19.42;46.62;98483.13;6160748;28;97638;-56
2022/09/13 04:26:01;;;;;;;;;44.50;37.50;;;;;19.54;46.48;98506.56;6160080;28;99162;-57
2022/09/13 04:29:04;;;;;;;;;42.67;36.83;;;;;19.54;46.44;98507.38;6161350;28;96938;-56
2022/09/13 04:32:08;;;;;;;;;38.50;34.17;;;;;19.54;46.55;98507.38;6160381;28;97547;-57
2022/09/13 04:35:11;;;;;;;;;41.80;36.20;;;;;19.55;46.49;98500.00;6159969;28;97706;-56
2022/09/13 04:38:15;;;;;;;;;47.00;40.40;;;;;19.42;46.37;98477.66;6159892;28;97559;-56
2022/09/13 04:41:20;;;;;;;;;44.60;38.60;;;;;19.60;46.61;98488.97;6161275;28;97557;-56
2022/09/13 04:44:24;;;;;;;;;44.83;39.00;;;;;19.63;46.42;98496.63;6159276;28;96648;-56
2022/09/13 04:47:27;;;;;;;;;44.80;38.20;;;;;19.67;46.56;98498.47;6168017;28;97549;-57
2022/09/13 04:50:31;;;;;;;;;43.60;37.60;;;;;19.70;46.43;98491.59;6160528;28;98205;-57
2022/09/13 04:53:34;;;;;;;;;33.60;32.00;;;;;19.75;46.35;98499.75;6160526;28;96664;-58
2022/09/13 04:56:39;;;;;;;;;39.00;35.00;;;;;19.80;46.41;98503.25;6159749;28;97625;-57
2022/09/13 04:59:43;;;;;;;;;49.40;41.80;;;;;19.84;46.37;98498.03;6159988;28;97585;-57
2022/09/13 05:02:46;;;;;;;;;44.40;38.00;;;;;19.87;46.17;98495.53;6158699;28;98457;-56
2022/09/13 05:05:50;;;;;;;;;38.20;34.80;;;;;19.90;45.76;98502.31;6159968;28;97421;-56
2022/09/13 05:08:55;;;;;;;;;43.00;37.17;;;;;19.94;46.13;98489.69;6161753;28;96572;-58
2022/09/13 05:11:59;;;;;;;;;46.40;40.00;;;;;20.01;45.78;98494.81;6164752;28;96651;-56
2022/09/13 05:15:03;;;;;;;;;36.75;33.50;;;;;20.07;45.85;98496.38;6165621;28;97083;-57
2022/09/13 05:18:07;;;;;;;;;46.00;39.40;;;;;20.15;45.92;98495.72;6165266;28;97421;-57
2022/09/13 05:21:10;;;;;;;;;45.00;38.20;;;;;20.23;45.98;98490.41;6163494;28;97238;-57
2022/09/13 05:24:13;;;;;;;;;40.20;35.40;;;;;20.28;45.91;98495.03;6164043;28;96705;-57
2022/09/13 05:27:18;;;;;;;;;36.25;33.25;;;;;20.33;45.68;98501.25;6165330;28;97571;-58
2022/09/13 05:30:21;;;;;;;;;44.67;38.00;;;;;20.44;46.03;98504.66;6164368;28;96753;-57
2022/09/13 05:33:25;;;;;;;;;43.00;38.00;;;;;20.56;45.76;98507.81;6160576;28;98182;-56
2022/09/13 05:36:28;;;;;;;;;43.80;38.00;;;;;20.66;45.11;98506.84;6163259;28;97379;-56
2022/09/13 05:39:31;;;;;;;;;40.20;35.80;;;;;20.74;44.95;98509.72;6164429;28;98598;-59
2022/09/13 05:42:56;;;;;;;;;46.20;40.00;;;;;20.84;44.63;98507.94;6162838;28;97445;-57
2022/09/13 05:46:04;;;;;;;;;42.75;36.50;;;;;20.94;44.78;98505.03;6162755;28;97495;-56
2022/09/13 05:49:08;;;;;;;;;32.00;30.00;;;;;21.04;44.57;98513.09;6161809;28;97472;-57
2022/09/13 05:52:11;;;;;;;;;40.00;35.00;;;;;21.13;44.10;98512.16;6162783;28;97225;-55
2022/09/13 05:55:14;;;;;;;;;47.00;40.00;;;;;21.26;43.76;98515.25;6163034;28;97103;-58
2022/09/13 05:58:19;;;;;;;;;40.40;36.00;;;;;21.38;43.89;98521.88;6163291;28;97220;-58
2022/09/13 06:01:25;;;;;;;;;34.00;32.50;;;;;21.50;43.69;98524.16;6164507;28;97603;-57
2022/09/13 06:04:29;;;;;;;;;46.00;39.00;;;;;21.59;43.06;98514.09;6155560;28;96532;-56
2022/09/13 06:07:32;;;;;;;;;43.60;36.60;;;;;21.70;43.07;98522.97;6162111;28;97082;-58
2022/09/13 06:10:36;;;;;;;;;39.00;35.00;;;;;21.80;42.71;98523.56;6164285;28;96750;-58
2022/09/13 06:13:42;;;;;;;;;41.50;35.83;;;;;21.92;42.80;98518.41;6162948;28;97172;-56
2022/09/13 06:16:45;;;;;;;;;45.67;39.50;;;;;22.06;42.58;98523.09;6164908;28;97424;-55
2022/09/13 06:19:48;;;;;;;;;43.83;38.17;;;;;22.19;42.46;98525.00;6164228;28;97582;-59
2022/09/13 06:22:51;;;;;;;;;42.00;36.20;;;;;22.33;42.45;98520.34;6163510;28;97441;-59
2022/09/13 06:26:03;;;;;;;;;36.00;32.80;;;;;22.46;42.34;98523.06;6172583;28;97129;-57
2022/09/13 06:29:11;;;;;;;;;29.00;28.40;;;;;22.62;42.22;98522.75;6167399;28;96973;-55
2022/09/13 06:32:14;;;;;;;;;35.40;32.60;;;;;22.76;42.16;98529.84;6163965;28;97219;-56
2022/09/13 06:35:18;;;;;;;;;33.50;31.50;;;;;22.87;41.62;98520.22;6159280;28;97179;-58
2022/09/13 06:38:21;;;;;;;;;48.25;40.50;;;;;22.98;41.64;98529.06;6162606;28;96663;-57
2022/09/13 06:41:26;;;;;;;;;41.20;36.00;;;;;23.11;41.71;98533.72;6162083;28;98170;-58
2022/09/13 06:44:30;;;;;;;;;49.40;42.20;;;;;23.26;41.09;98527.81;6161952;28;96871;-56
2022/09/13 06:47:34;;;;;;;;;44.80;38.80;;;;;23.44;41.16;98516.94;6163711;28;97443;-57
2022/09/13 06:50:37;;;;;;;;;45.50;38.50;;;;;23.56;40.47;98523.50;6163392;28;96901;-59
2022/09/13 06:53:42;;;;;;;;;22.75;21.50;;;;;23.60;40.54;98507.19;6163168;28;97224;-58
2022/09/13 06:56:46;;;;;;;;;42.20;36.20;;;;;23.82;39.68;98523.63;6162306;28;97128;-59
2022/09/13 06:59:50;;;;;;;;;35.80;33.00;;;;;24.00;40.03;98522.56;6162399;28;97080;-59
2022/09/13 07:02:54;;;;;;;;;50.83;43.50;;;;;24.18;40.27;98529.00;6162392;28;97107;-58
2022/09/13 07:05:58;;;;;;;;;49.40;42.00;;;;;24.36;39.49;98538.13;6162103;28;97502;-57
2022/09/13 07:09:04;;;;;;;;;42.40;37.00;;;;;24.39;38.95;98519.00;6160905;28;96731;-60
2022/09/13 07:12:07;;;;;;;;;46.00;39.80;;;;;24.66;38.96;98539.97;6162699;28;96777;-56
2022/09/13 07:15:13;;;;;;;;;47.00;40.50;;;;;24.81;39.01;98533.19;6164408;28;97442;-58
2022/09/13 07:18:16;;;;;;;;;27.40;26.40;;;;;24.97;38.62;98539.88;6162879;28;96907;-56
2022/09/13 07:21:21;;;;;;;;;49.00;41.40;;;;;25.14;38.23;98530.78;6162953;28;97112;-59
2022/09/13 07:24:25;;;;;;;;;45.00;39.00;;;;;25.36;37.93;98531.38;6163079;28;96579;-57
2022/09/13 07:27:28;;;;;;;;;46.20;40.00;;;;;25.54;37.94;98523.91;6163655;28;96798;-59
2022/09/13 07:30:35;;;;;;;;;42.60;37.00;;;;;25.70;38.17;98529.75;6162042;28;97898;-59
2022/09/13 07:33:39;;;;;;;;;39.40;35.00;;;;;25.88;37.18;98531.31;6164296;28;96835;-59
2022/09/13 07:36:43;;;;;;;;;46.50;40.00;;;;;26.05;36.93;98531.22;6160713;28;97881;-59
2022/09/13 07:39:47;;;;;;;;;44.00;38.00;;;;;26.28;36.32;98521.56;6162884;28;97680;-59
2022/09/13 07:42:51;;;;;;;;;35.40;32.20;;;;;26.41;35.98;98505.88;6162360;28;97501;-58
2022/09/13 07:46:01;;;;;;;;;39.40;34.80;;;;;26.70;35.19;98522.44;6162519;28;97543;-53
2022/09/13 07:49:05;;;;;;;;;40.60;35.60;;;;;26.85;35.41;98537.63;6162415;28;97266;-58
2022/09/13 07:52:09;;;;;;;;;40.00;35.00;;;;;27.06;35.05;98527.41;6159899;28;96980;-60
2022/09/13 07:55:12;;;;;;;;;39.60;35.00;;;;;27.32;34.76;98523.59;6163011;28;97498;-61
2022/09/13 07:58:15;;;;;;;;;42.40;36.80;;;;;27.50;34.01;98527.84;6162867;28;96539;-59
2022/09/13 08:01:22;;;;;;;;;40.40;35.40;;;;;27.69;33.74;98533.66;6161768;28;97195;-60
2022/09/13 08:04:26;;;;;;;;;41.40;36.00;;;;;27.89;33.70;98529.19;6160497;28;96567;-61
2022/09/13 08:07:30;;;;;;;;;45.60;38.60;;;;;28.05;33.23;98527.38;6162196;28;97478;-61
2022/09/13 08:10:33;;;;;;;;;48.00;40.60;;;;;28.15;32.84;98520.59;6160354;28;97820;-60
2022/09/13 08:13:37;;;;;;;;;41.00;36.00;;;;;28.25;32.84;98520.09;6160817;28;97507;-62
2022/09/13 08:16:42;;;;;;;;;31.20;29.60;;;;;28.39;32.72;98523.38;6161971;28;96795;-59
2022/09/13 08:19:45;;;;;;;;;40.40;35.80;;;;;28.55;31.98;98509.56;6161402;28;97456;-59
2022/09/13 08:22:49;;;;;;;;;39.75;35.50;;;;;28.58;31.81;98508.91;6161968;28;97440;-58
2022/09/13 08:25:52;;;;;;;;;37.80;34.20;;;;;28.66;31.66;98505.97;6159558;28;96457;-59
2022/09/13 08:28:57;;;;;;;;;40.75;35.75;;;;;28.71;31.45;98507.69;6162793;28;96604;-60
2022/09/13 08:32:02;;;;;;;;;41.20;36.40;;;;;28.80;31.03;98494.53;6162621;28;97071;-57
2022/09/13 08:35:05;;;;;;;;;38.00;34.80;;;;;28.88;31.57;98490.03;6162616;28;98163;-59
2022/09/13 08:38:09;;;;;;;;;37.75;34.25;;;;;29.19;31.59;98492.88;6162315;28;97257;-59
2022/09/13 08:41:34;;;;;;;;;34.50;32.75;;;;;29.42;29.90;98504.28;6162162;28;96738;-58
2022/09/13 08:44:43;;;;;;;;;34.40;32.40;;;;;29.64;30.15;98490.59;6162392;28;96977;-65
2022/09/13 08:47:53;;;;;;;;;28.75;27.75;;;;;29.85;29.50;98495.09;6162759;28;97454;-60
2022/09/13 08:51:01;;;;;;;;;34.20;32.40;;;;;29.99;29.22;98479.63;6162735;28;97466;-60
2022/09/13 08:54:05;;;;;;;;;28.00;28.00;;;;;30.24;28.84;98496.09;6162707;28;96854;-59
2022/09/13 08:57:16;;;;;;;;;26.25;25.00;;;;;30.45;28.65;98485.47;6160958;28;96797;-59
2022/09/13 09:00:23;;;;;;;;;18.00;17.75;;;;;30.67;28.08;98487.59;6160571;28;97096;-60
2022/09/13 09:03:36;;;;;;;;;21.00;20.00;;;;;30.83;27.97;98484.78;6147124;28;98180;-59
2022/09/13 09:06:40;;;;;;;;;25.60;25.00;;;;;30.99;27.19;98485.50;6162424;28;96686;-58
2022/09/13 09:09:52;;;;;;;;;28.25;28.00;;;;;31.22;27.90;98488.41;6161808;28;97669;-61
2022/09/13 09:12:58;;;;;;;;;27.80;27.60;;;;;31.45;26.20;98483.66;6159159;28;97033;-64
2022/09/13 09:16:11;;;;;;;;;29.00;28.00;;;;;31.69;26.36;98480.56;6144383;28;99351;-58
2022/09/13 09:19:23;;;;;;;;;27.60;27.60;;;;;31.95;26.10;98477.03;6162264;28;97584;-61
2022/09/13 09:22:32;;;;;;;;;22.00;20.25;;;;;32.05;26.14;98481.19;6161955;28;97019;-60
2022/09/13 09:25:36;;;;;;;;;23.40;22.20;;;;;32.06;25.18;98477.22;6161714;28;97385;-58
2022/09/13 09:28:39;;;;;;;;;23.50;23.50;;;;;32.12;24.90;98470.16;6160148;28;98633;-59
2022/09/13 09:31:52;;;;;;;;;26.00;25.80;;;;;32.18;25.04;98463.91;6147035;28;98419;-59
2022/09/13 09:35:12;;;;;;;;;15.20;14.60;;;;;32.13;24.76;98466.19;6159722;28;97008;-61
2022/09/13 09:38:40;;;;;;;;;21.25;20.25;;;;;31.97;25.30;98460.72;6160235;28;96460;-60
2022/09/13 09:41:44;;;;;;;;;35.60;33.20;;;;;31.82;25.40;98450.50;6158117;28;98055;-62
2022/09/13 09:44:52;;;;;;;;;25.20;24.80;;;;;31.70;25.85;98453.50;6159773;28;97259;-61
2022/09/13 09:48:00;;;;;;;;;25.00;24.50;;;;;31.62;25.94;98449.78;6158270;28;97463;-60
2022/09/13 09:51:09;;;;;;;;;24.60;24.60;;;;;31.67;26.08;98452.25;6159544;28;97483;-57
2022/09/13 09:54:13;;;;;;;;;26.60;26.60;;;;;31.76;26.12;98454.81;6146758;28;97126;-60
2022/09/13 09:57:19;;;;;;;;;24.80;23.80;;;;;31.83;25.65;98447.38;6163619;28;96405;-58
2022/09/13 10:00:25;;;;;;;;;26.00;26.00;;;;;31.90;25.70;98446.69;6165539;28;96700;-59
2022/09/13 10:03:31;;;;;;;;;24.40;24.40;;;;;32.05;25.64;98444.94;6165494;28;97251;-57
2022/09/13 10:06:37;;;;;;;;;32.40;31.20;;;;;32.12;25.61;98445.88;6165531;28;97455;-58
2022/09/13 10:10:03;;;;;;;;;23.00;23.00;;;;;32.19;25.42;98440.41;6164918;28;97679;-58
2022/09/13 10:13:13;;;;;;;;;23.20;22.20;;;;;32.34;25.47;98423.88;6161943;28;96559;-60
2022/09/13 10:16:26;;;;;;;;;24.00;24.00;;;;;32.55;25.53;98421.38;6162575;28;97530;-61
2022/09/13 10:19:31;;;;;;;;;21.40;20.40;;;;;32.67;24.72;98421.19;6162356;28;98044;-60
2022/09/13 10:22:37;;;;;;;;;23.00;23.00;;;;;32.78;24.59;98407.34;6162747;28;98016;-62
2022/09/13 10:25:42;;;;;;;;;22.25;22.25;;;;;32.76;25.00;98426.47;6165630;28;97037;-60
2022/09/13 10:28:57;;;;;;;;;26.40;25.80;;;;;32.73;24.96;98413.28;6165115;28;96656;-59
2022/09/13 10:32:11;;;;;;;;;17.00;17.00;;;;;32.62;24.66;98408.31;6164421;28;96851;-62
2022/09/13 10:35:18;;;;;;;;;23.00;22.80;;;;;32.55;24.65;98418.56;6162348;28;97509;-61
2022/09/13 10:38:29;;;;;;;;;30.50;29.75;;;;;32.50;24.59;98413.34;6160282;28;96734;-59
2022/09/13 10:41:37;;;;;;;;;12.60;12.20;;;;;32.55;24.95;98410.22;6164488;28;97245;-60
2022/09/13 10:44:44;;;;;;;;;21.20;21.20;;;;;32.56;25.34;98406.25;6164798;28;98175;-61
2022/09/13 10:47:51;;;;;;;;;25.00;24.00;;;;;32.51;24.19;98404.59;6146950;28;96841;-59
2022/09/13 10:51:03;;;;;;;;;18.40;18.00;;;;;32.45;24.36;98399.72;6177389;28;97435;-59
2022/09/13 10:54:16;;;;;;;;;21.20;20.80;;;;;32.36;23.84;98402.78;6165270;28;97322;-60
2022/09/13 10:57:33;;;;;;;;;21.20;21.20;;;;;32.43;24.12;98402.88;6163292;28;96891;-61
2022/09/13 11:00:45;;;;;;;;;16.40;16.40;;;;;32.47;23.93;98384.22;6161401;28;97515;-60
2022/09/13 11:04:39;;;;;;;;;17.75;17.50;;;;;32.55;23.32;98385.91;6163254;28;98211;-60
2022/09/13 11:08:01;;;;;;;;;22.40;22.40;;;;;32.53;23.99;98388.28;6160764;28;97399;-61
2022/09/13 11:11:14;;;;;;;;;16.00;16.00;;;;;32.54;24.34;98389.09;6161723;28;96894;-59
2022/09/13 11:14:31;;;;;;;;;27.20;27.20;;;;;32.48;23.66;98385.00;6160447;28;97266;-61
2022/09/13 11:17:55;;;;;;;;;21.40;21.40;;;;;32.43;23.66;98386.16;6163661;28;96488;-61
2022/09/13 11:21:14;;;;;;;;;22.00;21.40;;;;;32.43;24.04;98383.34;6163522;28;97444;-61
2022/09/13 11:24:33;;;;;;;;;22.00;22.00;;;;;32.48;24.19;98373.84;6163919;28;96809;-60
2022/09/13 11:27:50;;;;;;;;;9.20;8.40;;;;;32.46;23.83;98368.63;6164096;28;96854;-60
2022/09/13 11:31:08;;;;;;;;;34.40;31.40;;;;;32.44;23.89;98364.63;6162739;28;98632;-59
2022/09/13 11:34:24;;;;;;;;;18.60;18.60;;;;;32.48;23.87;98363.50;6162156;28;97498;-58
2022/09/13 11:37:46;;;;;;;;;23.20;22.80;;;;;32.61;23.62;98362.06;6161356;28;97378;-60
2022/09/13 11:40:58;;;;;;;;;23.80;23.80;;;;;32.65;22.88;98357.34;6162647;28;97047;-56
2022/09/13 11:44:28;;;;;;;;;24.00;23.20;;;;;32.68;23.16;98341.84;6162397;28;96524;-59
2022/09/13 11:47:45;;;;;;;;;22.00;21.20;;;;;32.79;23.48;98344.75;6163655;28;97751;-59
2022/09/13 11:51:02;;;;;;;;;10.00;9.50;;;;;32.92;23.19;98344.09;6163577;28;97355;-62
2022/09/13 11:54:17;;;;;;;;;19.00;19.00;;;;;32.93;21.99;98339.34;6163098;28;97495;-59
2022/09/13 11:57:26;;;;;;;;;23.40;23.40;;;;;32.90;21.88;98342.88;6163291;28;97736;-59
2022/09/13 12:00:36;;;;;;;;;26.20;26.20;;;;;32.91;22.06;98338.91;6162237;28;98429;-60
2022/09/13 12:03:47;;;;;;;;;15.60;15.60;;;;;32.86;22.04;98328.88;6163462;28;97506;-62
2022/09/13 12:06:57;;;;;;;;;33.20;31.80;;;;;32.89;22.10;98322.53;6163734;28;96765;-60
2022/09/13 12:10:06;;;;;;;;;34.80;32.80;;;;;32.71;21.79;98296.41;6163370;28;97096;-59
2022/09/13 12:13:15;;;;;;;;;13.00;13.00;;;;;32.73;21.56;98293.25;6162718;28;97472;-59
2022/09/13 12:16:23;;;;;;;;;17.00;17.00;;;;;32.84;22.11;98302.53;6162989;28;98127;-61
2022/09/13 12:19:32;;;;;;;;;21.40;21.40;;;;;32.87;22.28;98290.59;6161605;28;96831;-60
2022/09/13 12:22:36;;;;;;;;;19.20;19.20;;;;;32.91;22.65;98295.03;6162864;28;97113;-62
2022/09/13 12:25:50;;;;;;;;;8.00;7.25;;;;;32.95;22.10;98292.25;6162614;28;96483;-62
2022/09/13 12:28:58;;;;;;;;;33.60;31.20;;;;;32.95;21.39;98269.94;6160848;28;99185;-61
2022/09/13 12:32:06;;;;;;;;;16.20;15.80;;;;;32.91;21.43;98255.94;6161949;28;97418;-57
2022/09/13 12:35:21;;;;;;;;;11.80;11.80;;;;;33.02;21.62;98270.00;6161781;28;97717;-62
2022/09/13 12:39:15;;;;;;;;;22.00;21.40;;;;;32.93;21.29;98263.94;6175209;28;98941;-59
2022/09/13 12:43:02;;;;;;;;;26.80;26.20;;;;;32.79;21.33;98249.84;6116684;28;96955;-60
2022/09/13 12:46:25;;;;;;;;;23.00;23.00;;;;;32.59;21.95;98257.59;6140849;28;96927;-60
2022/09/13 12:49:44;;;;;;;;;24.00;24.00;;;;;32.32;22.98;98248.50;6161369;28;96656;-60
2022/09/13 12:53:01;;;;;;;;;25.20;25.20;;;;;32.16;22.07;98240.34;6162643;28;98187;-61
2022/09/13 12:56:24;;;;;;;;;16.40;16.40;;;;;31.91;22.34;98225.28;6161843;28;97487;-60
2022/09/13 12:59:51;;;;;;;;;11.00;11.00;;;;;31.67;23.20;98239.63;6160571;28;97550;-60
2022/09/13 13:03:10;;;;;;;;;26.25;26.00;;;;;31.46;23.28;98242.91;6156521;28;97306;-62
2022/09/13 13:06:26;;;;;;;;;36.60;33.80;;;;;31.25;23.56;98237.81;6161017;28;97294;-58
2022/09/13 13:09:39;;;;;;;;;36.00;33.40;;;;;31.07;23.80;98247.06;6162053;28;97296;-59
2022/09/13 13:12:43;;;;;;;;;24.00;23.00;;;;;30.84;23.49;98233.91;6161444;28;97287;-59
2022/09/13 13:16:00;;;;;;;;;21.00;21.00;;;;;30.65;23.64;98231.16;6157261;28;98085;-60
2022/09/13 13:19:25;;;;;;;;;20.00;20.00;;;;;30.49;23.97;98225.75;6172103;28;97665;-63
2022/09/13 13:22:50;;;;;;;;;16.00;16.00;;;;;30.33;24.74;98222.22;6161966;28;97488;-60
2022/09/13 13:26:09;;;;;;;;;29.60;28.60;;;;;30.25;25.22;98226.00;6161607;28;97712;-60
2022/09/13 13:29:18;;;;;;;;;28.33;28.33;;;;;30.18;25.35;98216.72;6162326;28;97024;-63
2022/09/13 13:32:21;;;;;;;;;29.20;29.00;;;;;30.14;25.58;98205.53;6164445;28;96654;-60
2022/09/13 13:35:31;;;;;;;;;30.60;30.00;;;;;30.11;25.14;98198.72;6165807;28;96620;-58
2022/09/13 13:38:54;;;;;;;;;35.60;32.80;;;;;30.14;25.07;98211.09;6166127;28;97297;-60
2022/09/13 13:42:00;;;;;;;;;25.00;24.40;;;;;30.17;25.42;98209.56;6164046;28;96965;-61
2022/09/13 13:45:19;;;;;;;;;27.60;26.20;;;;;30.24;25.50;98201.38;6164718;28;98598;-61
2022/09/13 13:48:35;;;;;;;;;32.40;31.20;;;;;30.30;25.81;98211.81;6165298;28;97353;-61
2022/09/13 13:51:39;;;;;;;;;32.60;31.40;;;;;30.33;25.21;98204.72;6165079;28;96682;-60
2022/09/13 13:55:01;;;;;;;;;25.25;25.25;;;;;30.30;24.63;98194.34;6165052;28;97452;-62
2022/09/13 13:58:15;;;;;;;;;27.50;27.25;;;;;30.31;24.92;98190.34;6162124;28;97345;-61
2022/09/13 14:01:24;;;;;;;;;20.00;19.33;;;;;30.28;24.88;98180.78;6164764;28;97649;-60
2022/09/13 14:05:00;;;;;;;;;25.00;25.00;;;;;30.22;24.62;98176.69;6165025;28;96934;-57
2022/09/13 14:08:30;;;;;;;;;33.60;31.60;;;;;30.15;25.14;98179.34;6164935;28;97655;-60
2022/09/13 14:11:48;;;;;;;;;24.20;24.00;;;;;30.10;25.52;98165.75;6160898;28;98373;-61
2022/09/13 14:15:15;;;;;;;;;17.80;17.80;;;;;30.16;25.67;98166.22;6162699;28;96658;-61
2022/09/13 14:18:47;;;;;;;;;27.20;27.20;;;;;30.19;25.54;98160.75;6164792;28;97649;-60
2022/09/13 14:22:15;;;;;;;;;17.75;17.50;;;;;30.23;25.33;98160.81;6163485;28;98608;-56
2022/09/13 14:25:25;;;;;;;;;36.00;33.25;;;;;30.34;25.36;98159.06;6161900;28;96874;-58
2022/09/13 14:28:32;;;;;;;;;23.75;23.50;;;;;30.38;24.90;98157.94;6164885;28;97530;-57
2022/09/13 14:31:37;;;;;;;;;21.80;21.00;;;;;30.02;25.29;98100.88;6165149;28;97232;-58